sensor_id;sensor_type;location;lat;lon;timestamp;P1;durP1;ratioP1;P2;durP2;ratioP2
15096;SDS011;7649;52.084;7.478;2023-09-19T00:00:41;7.80;;;3.00;;
15096;SDS011;7649;52.084;7.478;2023-09-19T00:03:10;6.60;;;2.83;;
15096;SDS011;7649;52.084;7.478;2023-09-19T00:05:39;8.33;;;2.73;;
15096;SDS011;7649;52.084;7.478;2023-09-19T00:08:12;7.80;;;3.10;;
15096;SDS011;7649;52.084;7.478;2023-09-19T00:10:42;9.00;;;2.90;;
15096;SDS011;7649;52.084;7.478;2023-09-19T00:13:11;7.23;;;2.80;;
15096;SDS011;7649;52.084;7.478;2023-09-19T00:15:42;8.10;;;3.13;;
15096;SDS011;7649;52.084;7.478;2023-09-19T00:18:15;8.27;;;2.90;;
15096;SDS011;7649;52.084;7.478;2023-09-19T00:20:45;10.50;;;3.10;;
15096;SDS011;7649;52.084;7.478;2023-09-19T00:23:16;7.40;;;3.10;;
15096;SDS011;7649;52.084;7.478;2023-09-19T00:25:47;9.20;;;3.10;;
15096;SDS011;7649;52.084;7.478;2023-09-19T00:28:17;10.43;;;2.90;;
15096;SDS011;7649;52.084;7.478;2023-09-19T00:30:46;8.80;;;3.20;;
15096;SDS011;7649;52.084;7.478;2023-09-19T00:33:17;11.80;;;3.43;;
15096;SDS011;7649;52.084;7.478;2023-09-19T00:35:47;9.10;;;3.00;;
15096;SDS011;7649;52.084;7.478;2023-09-19T00:38:15;7.13;;;2.90;;
15096;SDS011;7649;52.084;7.478;2023-09-19T00:40:47;10.70;;;3.30;;
15096;SDS011;7649;52.084;7.478;2023-09-19T00:43:17;8.23;;;3.07;;
15096;SDS011;7649;52.084;7.478;2023-09-19T00:45:46;11.87;;;3.40;;
15096;SDS011;7649;52.084;7.478;2023-09-19T00:48:15;11.50;;;3.30;;
15096;SDS011;7649;52.084;7.478;2023-09-19T00:50:45;10.17;;;3.30;;
15096;SDS011;7649;52.084;7.478;2023-09-19T00:53:17;7.67;;;3.00;;
15096;SDS011;7649;52.084;7.478;2023-09-19T00:55:48;10.00;;;3.20;;
15096;SDS011;7649;52.084;7.478;2023-09-19T00:58:16;12.57;;;3.40;;
15096;SDS011;7649;52.084;7.478;2023-09-19T01:00:46;9.60;;;2.80;;
15096;SDS011;7649;52.084;7.478;2023-09-19T01:03:14;7.83;;;3.20;;
15096;SDS011;7649;52.084;7.478;2023-09-19T01:05:45;8.90;;;3.77;;
15096;SDS011;7649;52.084;7.478;2023-09-19T01:08:14;9.80;;;3.57;;
15096;SDS011;7649;52.084;7.478;2023-09-19T01:10:44;9.87;;;3.10;;
15096;SDS011;7649;52.084;7.478;2023-09-19T01:13:18;10.87;;;3.10;;
15096;SDS011;7649;52.084;7.478;2023-09-19T01:15:51;9.57;;;3.57;;
15096;SDS011;7649;52.084;7.478;2023-09-19T01:18:26;8.27;;;3.47;;
15096;SDS011;7649;52.084;7.478;2023-09-19T01:20:57;9.03;;;2.73;;
15096;SDS011;7649;52.084;7.478;2023-09-19T01:23:33;9.87;;;3.37;;
15096;SDS011;7649;52.084;7.478;2023-09-19T01:26:07;8.23;;;3.30;;
15096;SDS011;7649;52.084;7.478;2023-09-19T01:28:43;9.93;;;3.40;;
15096;SDS011;7649;52.084;7.478;2023-09-19T01:31:15;10.83;;;3.60;;
15096;SDS011;7649;52.084;7.478;2023-09-19T01:33:57;13.07;;;4.00;;
15096;SDS011;7649;52.084;7.478;2023-09-19T01:36:27;10.63;;;3.40;;
15096;SDS011;7649;52.084;7.478;2023-09-19T01:38:57;14.77;;;4.20;;
15096;SDS011;7649;52.084;7.478;2023-09-19T01:41:41;9.23;;;3.43;;
15096;SDS011;7649;52.084;7.478;2023-09-19T01:44:15;9.57;;;3.27;;
15096;SDS011;7649;52.084;7.478;2023-09-19T01:46:47;10.00;;;3.33;;
15096;SDS011;7649;52.084;7.478;2023-09-19T01:49:18;11.30;;;3.63;;
15096;SDS011;7649;52.084;7.478;2023-09-19T01:51:52;9.57;;;3.20;;
15096;SDS011;7649;52.084;7.478;2023-09-19T01:54:24;11.80;;;3.50;;
15096;SDS011;7649;52.084;7.478;2023-09-19T01:56:57;11.77;;;3.30;;
15096;SDS011;7649;52.084;7.478;2023-09-19T01:59:28;12.23;;;3.77;;
15096;SDS011;7649;52.084;7.478;2023-09-19T02:02:01;12.63;;;3.77;;
15096;SDS011;7649;52.084;7.478;2023-09-19T02:04:31;8.53;;;3.53;;
15096;SDS011;7649;52.084;7.478;2023-09-19T02:07:01;10.27;;;3.57;;
15096;SDS011;7649;52.084;7.478;2023-09-19T02:09:32;13.97;;;3.87;;
15096;SDS011;7649;52.084;7.478;2023-09-19T02:12:01;13.07;;;3.47;;
15096;SDS011;7649;52.084;7.478;2023-09-19T02:14:31;11.10;;;3.60;;
15096;SDS011;7649;52.084;7.478;2023-09-19T02:17:02;8.00;;;3.67;;
15096;SDS011;7649;52.084;7.478;2023-09-19T02:19:31;15.43;;;3.70;;
15096;SDS011;7649;52.084;7.478;2023-09-19T02:22:00;11.03;;;3.43;;
15096;SDS011;7649;52.084;7.478;2023-09-19T02:24:29;13.23;;;3.70;;
15096;SDS011;7649;52.084;7.478;2023-09-19T02:26:58;12.27;;;3.47;;
15096;SDS011;7649;52.084;7.478;2023-09-19T02:29:30;12.20;;;3.60;;
15096;SDS011;7649;52.084;7.478;2023-09-19T02:31:58;9.00;;;3.37;;
15096;SDS011;7649;52.084;7.478;2023-09-19T02:34:30;16.77;;;4.00;;
15096;SDS011;7649;52.084;7.478;2023-09-19T02:36:59;10.60;;;3.30;;
15096;SDS011;7649;52.084;7.478;2023-09-19T02:39:27;10.40;;;3.83;;
15096;SDS011;7649;52.084;7.478;2023-09-19T02:41:56;12.93;;;3.80;;
15096;SDS011;7649;52.084;7.478;2023-09-19T02:44:24;10.87;;;3.57;;
15096;SDS011;7649;52.084;7.478;2023-09-19T02:46:54;10.53;;;3.63;;
15096;SDS011;7649;52.084;7.478;2023-09-19T02:49:23;8.90;;;3.50;;
15096;SDS011;7649;52.084;7.478;2023-09-19T02:51:54;11.63;;;3.60;;
15096;SDS011;7649;52.084;7.478;2023-09-19T02:54:25;11.77;;;3.00;;
15096;SDS011;7649;52.084;7.478;2023-09-19T02:56:53;11.23;;;3.53;;
15096;SDS011;7649;52.084;7.478;2023-09-19T02:59:22;10.87;;;3.77;;
15096;SDS011;7649;52.084;7.478;2023-09-19T03:01:51;10.63;;;3.50;;
15096;SDS011;7649;52.084;7.478;2023-09-19T03:04:20;10.83;;;3.50;;
15096;SDS011;7649;52.084;7.478;2023-09-19T03:06:49;10.33;;;3.50;;
15096;SDS011;7649;52.084;7.478;2023-09-19T03:09:20;11.07;;;3.10;;
15096;SDS011;7649;52.084;7.478;2023-09-19T03:11:49;13.30;;;3.47;;
15096;SDS011;7649;52.084;7.478;2023-09-19T03:14:18;8.33;;;3.33;;
15096;SDS011;7649;52.084;7.478;2023-09-19T03:16:47;11.57;;;3.70;;
15096;SDS011;7649;52.084;7.478;2023-09-19T03:19:15;13.67;;;3.60;;
15096;SDS011;7649;52.084;7.478;2023-09-19T03:21:44;10.40;;;3.40;;
15096;SDS011;7649;52.084;7.478;2023-09-19T03:24:15;11.63;;;3.43;;
15096;SDS011;7649;52.084;7.478;2023-09-19T03:26:45;10.33;;;3.70;;
15096;SDS011;7649;52.084;7.478;2023-09-19T03:29:14;12.97;;;3.50;;
15096;SDS011;7649;52.084;7.478;2023-09-19T03:31:43;14.93;;;3.50;;
15096;SDS011;7649;52.084;7.478;2023-09-19T03:34:12;10.53;;;3.30;;
15096;SDS011;7649;52.084;7.478;2023-09-19T03:36:41;9.20;;;3.17;;
15096;SDS011;7649;52.084;7.478;2023-09-19T03:39:09;13.57;;;3.27;;
15096;SDS011;7649;52.084;7.478;2023-09-19T03:41:38;11.40;;;3.00;;
15096;SDS011;7649;52.084;7.478;2023-09-19T03:44:08;11.60;;;3.50;;
15096;SDS011;7649;52.084;7.478;2023-09-19T03:46:37;11.23;;;4.07;;
15096;SDS011;7649;52.084;7.478;2023-09-19T03:49:05;10.67;;;3.03;;
15096;SDS011;7649;52.084;7.478;2023-09-19T03:51:35;11.27;;;3.50;;
15096;SDS011;7649;52.084;7.478;2023-09-19T03:54:04;11.13;;;3.40;;
15096;SDS011;7649;52.084;7.478;2023-09-19T03:56:33;12.87;;;3.33;;
15096;SDS011;7649;52.084;7.478;2023-09-19T03:59:01;14.50;;;3.03;;
15096;SDS011;7649;52.084;7.478;2023-09-19T04:01:31;12.50;;;3.20;;
15096;SDS011;7649;52.084;7.478;2023-09-19T04:04:00;9.03;;;3.30;;
15096;SDS011;7649;52.084;7.478;2023-09-19T04:06:34;9.57;;;2.87;;
15096;SDS011;7649;52.084;7.478;2023-09-19T04:09:03;15.07;;;3.60;;
15096;SDS011;7649;52.084;7.478;2023-09-19T04:11:33;14.37;;;3.30;;
15096;SDS011;7649;52.084;7.478;2023-09-19T04:14:02;8.43;;;3.23;;
15096;SDS011;7649;52.084;7.478;2023-09-19T04:16:33;10.53;;;3.30;;
15096;SDS011;7649;52.084;7.478;2023-09-19T04:19:02;14.30;;;3.60;;
15096;SDS011;7649;52.084;7.478;2023-09-19T04:21:31;11.07;;;3.10;;
15096;SDS011;7649;52.084;7.478;2023-09-19T04:24:00;11.77;;;3.30;;
15096;SDS011;7649;52.084;7.478;2023-09-19T04:26:29;10.50;;;3.70;;
15096;SDS011;7649;52.084;7.478;2023-09-19T04:28:57;13.30;;;3.30;;
15096;SDS011;7649;52.084;7.478;2023-09-19T04:31:27;11.47;;;3.57;;
15096;SDS011;7649;52.084;7.478;2023-09-19T04:33:57;9.70;;;3.00;;
15096;SDS011;7649;52.084;7.478;2023-09-19T04:36:31;11.40;;;3.70;;
15096;SDS011;7649;52.084;7.478;2023-09-19T04:39:01;12.00;;;3.50;;
15096;SDS011;7649;52.084;7.478;2023-09-19T04:41:33;12.57;;;3.03;;
15096;SDS011;7649;52.084;7.478;2023-09-19T04:44:05;13.80;;;3.90;;
15096;SDS011;7649;52.084;7.478;2023-09-19T04:46:34;12.67;;;3.17;;
15096;SDS011;7649;52.084;7.478;2023-09-19T04:49:04;11.80;;;3.40;;
15096;SDS011;7649;52.084;7.478;2023-09-19T04:51:32;10.40;;;3.50;;
15096;SDS011;7649;52.084;7.478;2023-09-19T04:54:02;9.13;;;3.53;;
15096;SDS011;7649;52.084;7.478;2023-09-19T04:56:31;11.00;;;3.37;;
15096;SDS011;7649;52.084;7.478;2023-09-19T04:59:00;9.83;;;2.67;;
15096;SDS011;7649;52.084;7.478;2023-09-19T05:01:28;7.97;;;3.13;;
15096;SDS011;7649;52.084;7.478;2023-09-19T05:03:57;11.93;;;3.43;;
15096;SDS011;7649;52.084;7.478;2023-09-19T05:06:28;6.43;;;3.17;;
15096;SDS011;7649;52.084;7.478;2023-09-19T05:08:57;11.87;;;3.60;;
15096;SDS011;7649;52.084;7.478;2023-09-19T05:11:26;9.10;;;2.90;;
15096;SDS011;7649;52.084;7.478;2023-09-19T05:13:56;10.43;;;3.43;;
15096;SDS011;7649;52.084;7.478;2023-09-19T05:16:28;7.40;;;2.80;;
15096;SDS011;7649;52.084;7.478;2023-09-19T05:18:59;10.33;;;3.20;;
15096;SDS011;7649;52.084;7.478;2023-09-19T05:21:29;14.17;;;3.27;;
15096;SDS011;7649;52.084;7.478;2023-09-19T05:23:59;9.97;;;3.17;;
15096;SDS011;7649;52.084;7.478;2023-09-19T05:26:28;11.00;;;2.90;;
15096;SDS011;7649;52.084;7.478;2023-09-19T05:28:57;10.47;;;3.10;;
15096;SDS011;7649;52.084;7.478;2023-09-19T05:31:25;10.10;;;3.17;;
15096;SDS011;7649;52.084;7.478;2023-09-19T05:33:54;10.10;;;3.20;;
15096;SDS011;7649;52.084;7.478;2023-09-19T05:36:22;9.37;;;3.13;;
15096;SDS011;7649;52.084;7.478;2023-09-19T05:38:52;14.63;;;3.93;;
15096;SDS011;7649;52.084;7.478;2023-09-19T05:41:21;7.20;;;3.10;;
15096;SDS011;7649;52.084;7.478;2023-09-19T05:43:49;9.87;;;3.03;;
15096;SDS011;7649;52.084;7.478;2023-09-19T05:46:18;7.10;;;3.27;;
15096;SDS011;7649;52.084;7.478;2023-09-19T05:48:47;8.80;;;2.80;;
15096;SDS011;7649;52.084;7.478;2023-09-19T05:51:16;8.13;;;2.93;;
15096;SDS011;7649;52.084;7.478;2023-09-19T05:53:49;11.87;;;3.63;;
15096;SDS011;7649;52.084;7.478;2023-09-19T05:56:22;6.93;;;2.43;;
15096;SDS011;7649;52.084;7.478;2023-09-19T05:58:51;6.63;;;3.00;;
15096;SDS011;7649;52.084;7.478;2023-09-19T06:01:21;6.87;;;2.87;;
15096;SDS011;7649;52.084;7.478;2023-09-19T06:03:52;8.70;;;2.90;;
15096;SDS011;7649;52.084;7.478;2023-09-19T06:06:21;8.33;;;3.27;;
15096;SDS011;7649;52.084;7.478;2023-09-19T06:08:50;8.60;;;2.80;;
15096;SDS011;7649;52.084;7.478;2023-09-19T06:11:19;6.47;;;2.30;;
15096;SDS011;7649;52.084;7.478;2023-09-19T06:13:50;8.10;;;2.73;;
15096;SDS011;7649;52.084;7.478;2023-09-19T06:16:19;11.43;;;2.83;;
15096;SDS011;7649;52.084;7.478;2023-09-19T06:18:48;11.57;;;3.03;;
15096;SDS011;7649;52.084;7.478;2023-09-19T06:21:19;8.17;;;3.20;;
15096;SDS011;7649;52.084;7.478;2023-09-19T06:23:47;9.03;;;3.20;;
15096;SDS011;7649;52.084;7.478;2023-09-19T06:26:16;7.87;;;2.87;;
15096;SDS011;7649;52.084;7.478;2023-09-19T06:28:44;6.47;;;2.60;;
15096;SDS011;7649;52.084;7.478;2023-09-19T06:31:14;7.13;;;2.90;;
15096;SDS011;7649;52.084;7.478;2023-09-19T06:33:43;14.33;;;2.97;;
15096;SDS011;7649;52.084;7.478;2023-09-19T06:36:11;11.53;;;2.90;;
15096;SDS011;7649;52.084;7.478;2023-09-19T06:38:40;6.33;;;2.77;;
15096;SDS011;7649;52.084;7.478;2023-09-19T06:41:09;10.90;;;3.00;;
15096;SDS011;7649;52.084;7.478;2023-09-19T06:43:40;6.53;;;2.73;;
15096;SDS011;7649;52.084;7.478;2023-09-19T06:46:09;8.57;;;2.90;;
15096;SDS011;7649;52.084;7.478;2023-09-19T06:48:40;8.27;;;3.10;;
15096;SDS011;7649;52.084;7.478;2023-09-19T06:51:10;7.47;;;2.97;;
15096;SDS011;7649;52.084;7.478;2023-09-19T06:53:39;9.60;;;2.73;;
15096;SDS011;7649;52.084;7.478;2023-09-19T06:56:08;8.50;;;3.00;;
15096;SDS011;7649;52.084;7.478;2023-09-19T06:58:37;9.07;;;3.03;;
15096;SDS011;7649;52.084;7.478;2023-09-19T07:01:05;8.93;;;2.30;;
15096;SDS011;7649;52.084;7.478;2023-09-19T07:03:33;9.13;;;2.70;;
15096;SDS011;7649;52.084;7.478;2023-09-19T07:06:04;7.27;;;2.97;;
15096;SDS011;7649;52.084;7.478;2023-09-19T07:08:33;8.60;;;3.07;;
15096;SDS011;7649;52.084;7.478;2023-09-19T07:11:01;7.00;;;2.53;;
15096;SDS011;7649;52.084;7.478;2023-09-19T07:13:32;9.07;;;2.70;;
15096;SDS011;7649;52.084;7.478;2023-09-19T07:16:01;11.37;;;3.00;;
15096;SDS011;7649;52.084;7.478;2023-09-19T07:18:30;7.20;;;2.90;;
15096;SDS011;7649;52.084;7.478;2023-09-19T07:20:59;8.50;;;2.97;;
15096;SDS011;7649;52.084;7.478;2023-09-19T07:23:32;11.50;;;3.43;;
15096;SDS011;7649;52.084;7.478;2023-09-19T07:26:01;9.93;;;2.97;;
15096;SDS011;7649;52.084;7.478;2023-09-19T07:28:31;8.93;;;3.10;;
15096;SDS011;7649;52.084;7.478;2023-09-19T07:31:01;9.57;;;2.80;;
15096;SDS011;7649;52.084;7.478;2023-09-19T07:33:31;8.13;;;2.60;;
15096;SDS011;7649;52.084;7.478;2023-09-19T07:36:00;6.50;;;2.63;;
15096;SDS011;7649;52.084;7.478;2023-09-19T07:38:28;7.43;;;2.87;;
15096;SDS011;7649;52.084;7.478;2023-09-19T07:41:01;9.30;;;2.87;;
15096;SDS011;7649;52.084;7.478;2023-09-19T07:43:31;10.67;;;2.97;;
15096;SDS011;7649;52.084;7.478;2023-09-19T07:46:02;10.43;;;3.23;;
15096;SDS011;7649;52.084;7.478;2023-09-19T07:48:32;8.63;;;3.10;;
15096;SDS011;7649;52.084;7.478;2023-09-19T07:51:02;7.53;;;3.00;;
15096;SDS011;7649;52.084;7.478;2023-09-19T07:56:32;14.33;;;3.50;;
15096;SDS011;7649;52.084;7.478;2023-09-19T07:59:01;13.03;;;3.90;;
15096;SDS011;7649;52.084;7.478;2023-09-19T08:01:29;10.20;;;3.30;;
15096;SDS011;7649;52.084;7.478;2023-09-19T08:03:59;9.93;;;3.10;;
15096;SDS011;7649;52.084;7.478;2023-09-19T08:06:28;7.70;;;2.77;;
15096;SDS011;7649;52.084;7.478;2023-09-19T08:08:56;11.00;;;3.30;;
15096;SDS011;7649;52.084;7.478;2023-09-19T08:11:27;8.70;;;3.00;;
15096;SDS011;7649;52.084;7.478;2023-09-19T08:13:58;7.30;;;3.27;;
15096;SDS011;7649;52.084;7.478;2023-09-19T08:16:27;11.47;;;2.97;;
15096;SDS011;7649;52.084;7.478;2023-09-19T08:18:56;10.83;;;3.37;;
15096;SDS011;7649;52.084;7.478;2023-09-19T08:21:25;11.73;;;3.47;;
15096;SDS011;7649;52.084;7.478;2023-09-19T08:23:56;11.10;;;3.20;;
15096;SDS011;7649;52.084;7.478;2023-09-19T08:26:24;6.67;;;2.87;;
15096;SDS011;7649;52.084;7.478;2023-09-19T08:28:53;11.37;;;3.20;;
15096;SDS011;7649;52.084;7.478;2023-09-19T08:31:23;11.40;;;3.13;;
15096;SDS011;7649;52.084;7.478;2023-09-19T08:33:53;13.77;;;3.80;;
15096;SDS011;7649;52.084;7.478;2023-09-19T08:36:22;9.97;;;2.90;;
15096;SDS011;7649;52.084;7.478;2023-09-19T08:38:51;13.00;;;3.27;;
15096;SDS011;7649;52.084;7.478;2023-09-19T08:41:20;12.20;;;3.30;;
15096;SDS011;7649;52.084;7.478;2023-09-19T08:43:48;13.43;;;2.90;;
15096;SDS011;7649;52.084;7.478;2023-09-19T08:46:18;11.63;;;2.83;;
15096;SDS011;7649;52.084;7.478;2023-09-19T08:48:50;12.53;;;3.37;;
15096;SDS011;7649;52.084;7.478;2023-09-19T08:51:25;11.93;;;3.33;;
15096;SDS011;7649;52.084;7.478;2023-09-19T08:53:56;9.60;;;3.07;;
15096;SDS011;7649;52.084;7.478;2023-09-19T08:56:27;12.53;;;3.97;;
15096;SDS011;7649;52.084;7.478;2023-09-19T08:58:57;9.10;;;3.80;;
15096;SDS011;7649;52.084;7.478;2023-09-19T09:01:28;12.40;;;3.50;;
15096;SDS011;7649;52.084;7.478;2023-09-19T09:04:01;8.53;;;3.30;;
15096;SDS011;7649;52.084;7.478;2023-09-19T09:06:30;16.83;;;3.07;;
15096;SDS011;7649;52.084;7.478;2023-09-19T09:09:00;9.23;;;3.17;;
15096;SDS011;7649;52.084;7.478;2023-09-19T09:11:29;26.20;;;6.33;;
15096;SDS011;7649;52.084;7.478;2023-09-19T09:14:01;8.20;;;3.22;;
15096;SDS011;7649;52.084;7.478;2023-09-19T09:16:29;12.43;;;3.33;;
15096;SDS011;7649;52.084;7.478;2023-09-19T09:18:59;10.00;;;2.92;;
15096;SDS011;7649;52.084;7.478;2023-09-19T09:21:29;8.70;;;3.00;;
15096;SDS011;7649;52.084;7.478;2023-09-19T09:26:45;11.88;;;3.40;;
15096;SDS011;7649;52.084;7.478;2023-09-19T09:29:15;11.82;;;3.50;;
15096;SDS011;7649;52.084;7.478;2023-09-19T09:31:46;8.10;;;2.67;;
15096;SDS011;7649;52.084;7.478;2023-09-19T09:34:17;11.02;;;3.25;;
15096;SDS011;7649;52.084;7.478;2023-09-19T09:36:47;9.27;;;3.20;;
15096;SDS011;7649;52.084;7.478;2023-09-19T09:39:29;9.73;;;3.10;;
15096;SDS011;7649;52.084;7.478;2023-09-19T09:41:58;9.02;;;2.95;;
15096;SDS011;7649;52.084;7.478;2023-09-19T09:44:27;11.60;;;3.55;;
15096;SDS011;7649;52.084;7.478;2023-09-19T09:46:58;8.63;;;3.50;;
15096;SDS011;7649;52.084;7.478;2023-09-19T09:49:50;12.60;;;3.50;;
15096;SDS011;7649;52.084;7.478;2023-09-19T09:52:44;9.77;;;3.65;;
15096;SDS011;7649;52.084;7.478;2023-09-19T09:55:12;11.70;;;3.15;;
15096;SDS011;7649;52.084;7.478;2023-09-19T09:57:41;12.68;;;3.53;;
15096;SDS011;7649;52.084;7.478;2023-09-19T10:00:11;9.20;;;3.38;;
15096;SDS011;7649;52.084;7.478;2023-09-19T10:02:46;9.65;;;3.88;;
15096;SDS011;7649;52.084;7.478;2023-09-19T10:05:17;10.00;;;3.10;;
15096;SDS011;7649;52.084;7.478;2023-09-19T10:08:10;11.68;;;3.25;;
15096;SDS011;7649;52.084;7.478;2023-09-19T10:10:42;7.38;;;3.20;;
15096;SDS011;7649;52.084;7.478;2023-09-19T10:13:20;10.02;;;2.70;;
15096;SDS011;7649;52.084;7.478;2023-09-19T10:15:51;8.90;;;3.42;;
15096;SDS011;7649;52.084;7.478;2023-09-19T10:18:22;12.23;;;3.28;;
15096;SDS011;7649;52.084;7.478;2023-09-19T10:20:52;7.15;;;3.13;;
15096;SDS011;7649;52.084;7.478;2023-09-19T10:23:21;7.47;;;3.00;;
15096;SDS011;7649;52.084;7.478;2023-09-19T10:25:51;10.23;;;3.33;;
15096;SDS011;7649;52.084;7.478;2023-09-19T10:28:21;10.32;;;3.25;;
15096;SDS011;7649;52.084;7.478;2023-09-19T10:30:50;9.38;;;2.95;;
15096;SDS011;7649;52.084;7.478;2023-09-19T10:33:20;8.07;;;3.00;;
15096;SDS011;7649;52.084;7.478;2023-09-19T10:35:49;8.88;;;3.03;;
15096;SDS011;7649;52.084;7.478;2023-09-19T10:38:23;9.90;;;3.30;;
15096;SDS011;7649;52.084;7.478;2023-09-19T10:40:52;11.77;;;3.03;;
15096;SDS011;7649;52.084;7.478;2023-09-19T10:43:23;13.10;;;3.58;;
15096;SDS011;7649;52.084;7.478;2023-09-19T10:45:53;10.57;;;3.60;;
15096;SDS011;7649;52.084;7.478;2023-09-19T10:48:23;7.63;;;3.00;;
15096;SDS011;7649;52.084;7.478;2023-09-19T10:50:55;9.82;;;3.47;;
15096;SDS011;7649;52.084;7.478;2023-09-19T10:53:27;10.07;;;3.70;;
15096;SDS011;7649;52.084;7.478;2023-09-19T10:55:59;8.30;;;3.30;;
15096;SDS011;7649;52.084;7.478;2023-09-19T10:58:29;8.48;;;3.25;;
15096;SDS011;7649;52.084;7.478;2023-09-19T11:01:04;9.00;;;3.17;;
15096;SDS011;7649;52.084;7.478;2023-09-19T11:03:41;9.68;;;3.50;;
15096;SDS011;7649;52.084;7.478;2023-09-19T11:06:11;10.25;;;3.20;;
15096;SDS011;7649;52.084;7.478;2023-09-19T11:08:58;10.48;;;3.65;;
15096;SDS011;7649;52.084;7.478;2023-09-19T11:11:50;9.20;;;3.17;;
15096;SDS011;7649;52.084;7.478;2023-09-19T11:14:38;9.38;;;3.53;;
15096;SDS011;7649;52.084;7.478;2023-09-19T11:20:17;9.45;;;3.25;;
15096;SDS011;7649;52.084;7.478;2023-09-19T11:25:45;9.75;;;3.22;;
15096;SDS011;7649;52.084;7.478;2023-09-19T11:28:27;8.88;;;3.08;;
15096;SDS011;7649;52.084;7.478;2023-09-19T11:30:57;7.82;;;3.38;;
15096;SDS011;7649;52.084;7.478;2023-09-19T11:33:26;11.10;;;3.75;;
15096;SDS011;7649;52.084;7.478;2023-09-19T11:36:00;7.15;;;3.00;;
15096;SDS011;7649;52.084;7.478;2023-09-19T11:46:54;8.65;;;3.00;;
15096;SDS011;7649;52.084;7.478;2023-09-19T11:49:26;8.00;;;2.97;;
15096;SDS011;7649;52.084;7.478;2023-09-19T11:51:58;8.68;;;3.03;;
15096;SDS011;7649;52.084;7.478;2023-09-19T11:54:31;10.40;;;3.30;;
15096;SDS011;7649;52.084;7.478;2023-09-19T11:57:00;7.95;;;2.65;;
15096;SDS011;7649;52.084;7.478;2023-09-19T11:59:29;7.25;;;3.10;;
15096;SDS011;7649;52.084;7.478;2023-09-19T12:02:03;7.65;;;3.08;;
15096;SDS011;7649;52.084;7.478;2023-09-19T12:04:33;6.97;;;2.65;;
15096;SDS011;7649;52.084;7.478;2023-09-19T12:07:04;7.60;;;2.85;;
15096;SDS011;7649;52.084;7.478;2023-09-19T12:09:38;8.25;;;3.10;;
15096;SDS011;7649;52.084;7.478;2023-09-19T12:12:10;9.55;;;2.50;;
15096;SDS011;7649;52.084;7.478;2023-09-19T12:14:41;5.53;;;2.63;;
15096;SDS011;7649;52.084;7.478;2023-09-19T12:17:17;7.63;;;2.60;;
15096;SDS011;7649;52.084;7.478;2023-09-19T12:19:52;8.35;;;2.90;;
15096;SDS011;7649;52.084;7.478;2023-09-19T12:22:21;7.75;;;2.80;;
15096;SDS011;7649;52.084;7.478;2023-09-19T12:24:51;8.50;;;3.28;;
15096;SDS011;7649;52.084;7.478;2023-09-19T12:27:21;8.05;;;3.00;;
15096;SDS011;7649;52.084;7.478;2023-09-19T12:29:52;11.00;;;2.63;;
15096;SDS011;7649;52.084;7.478;2023-09-19T12:32:34;5.22;;;2.60;;
15096;SDS011;7649;52.084;7.478;2023-09-19T12:35:03;10.50;;;3.10;;
15096;SDS011;7649;52.084;7.478;2023-09-19T12:37:37;7.35;;;2.75;;
15096;SDS011;7649;52.084;7.478;2023-09-19T12:40:23;7.53;;;2.67;;
15096;SDS011;7649;52.084;7.478;2023-09-19T12:42:56;6.32;;;2.40;;
15096;SDS011;7649;52.084;7.478;2023-09-19T12:45:25;7.07;;;2.83;;
15096;SDS011;7649;52.084;7.478;2023-09-19T12:53:27;12.07;;;2.70;;
15096;SDS011;7649;52.084;7.478;2023-09-19T12:55:57;8.57;;;2.75;;
15096;SDS011;7649;52.084;7.478;2023-09-19T12:58:26;5.40;;;2.40;;
15096;SDS011;7649;52.084;7.478;2023-09-19T13:00:58;8.63;;;2.38;;
15096;SDS011;7649;52.084;7.478;2023-09-19T13:03:27;10.25;;;2.80;;
15096;SDS011;7649;52.084;7.478;2023-09-19T13:06:02;8.07;;;2.60;;
15096;SDS011;7649;52.084;7.478;2023-09-19T13:08:33;8.23;;;2.63;;
15096;SDS011;7649;52.084;7.478;2023-09-19T13:11:10;8.70;;;2.83;;
15096;SDS011;7649;52.084;7.478;2023-09-19T13:13:41;5.60;;;2.40;;
15096;SDS011;7649;52.084;7.478;2023-09-19T13:16:14;6.95;;;2.50;;
15096;SDS011;7649;52.084;7.478;2023-09-19T13:18:46;7.78;;;2.85;;
15096;SDS011;7649;52.084;7.478;2023-09-19T13:21:20;6.55;;;2.80;;
15096;SDS011;7649;52.084;7.478;2023-09-19T13:24:17;7.22;;;2.60;;
15096;SDS011;7649;52.084;7.478;2023-09-19T13:26:45;8.75;;;3.08;;
15096;SDS011;7649;52.084;7.478;2023-09-19T13:29:13;8.98;;;2.80;;
15096;SDS011;7649;52.084;7.478;2023-09-19T13:31:45;8.32;;;2.70;;
15096;SDS011;7649;52.084;7.478;2023-09-19T13:34:13;5.93;;;2.95;;
15096;SDS011;7649;52.084;7.478;2023-09-19T13:36:43;6.75;;;2.55;;
15096;SDS011;7649;52.084;7.478;2023-09-19T13:39:13;8.00;;;2.72;;
15096;SDS011;7649;52.084;7.478;2023-09-19T13:41:43;8.32;;;2.75;;
15096;SDS011;7649;52.084;7.478;2023-09-19T13:44:14;6.75;;;2.58;;
15096;SDS011;7649;52.084;7.478;2023-09-19T13:46:43;6.22;;;2.80;;
15096;SDS011;7649;52.084;7.478;2023-09-19T13:49:14;7.25;;;2.78;;
15096;SDS011;7649;52.084;7.478;2023-09-19T13:51:47;6.90;;;2.90;;
15096;SDS011;7649;52.084;7.478;2023-09-19T13:54:16;5.80;;;2.75;;
15096;SDS011;7649;52.084;7.478;2023-09-19T13:56:47;6.72;;;2.33;;
15096;SDS011;7649;52.084;7.478;2023-09-19T13:59:16;8.82;;;2.70;;
15096;SDS011;7649;52.084;7.478;2023-09-19T14:01:45;5.90;;;2.20;;
15096;SDS011;7649;52.084;7.478;2023-09-19T14:04:14;5.20;;;2.30;;
15096;SDS011;7649;52.084;7.478;2023-09-19T14:06:43;11.70;;;3.08;;
15096;SDS011;7649;52.084;7.478;2023-09-19T14:09:12;7.93;;;2.42;;
15096;SDS011;7649;52.084;7.478;2023-09-19T14:11:47;6.50;;;2.50;;
15096;SDS011;7649;52.084;7.478;2023-09-19T14:14:16;6.55;;;2.30;;
15096;SDS011;7649;52.084;7.478;2023-09-19T14:16:44;7.78;;;2.95;;
15096;SDS011;7649;52.084;7.478;2023-09-19T14:19:13;10.10;;;2.53;;
15096;SDS011;7649;52.084;7.478;2023-09-19T14:21:42;8.15;;;2.30;;
15096;SDS011;7649;52.084;7.478;2023-09-19T14:24:16;5.53;;;2.33;;
15096;SDS011;7649;52.084;7.478;2023-09-19T14:26:45;5.10;;;2.25;;
15096;SDS011;7649;52.084;7.478;2023-09-19T14:29:15;6.57;;;2.35;;
15096;SDS011;7649;52.084;7.478;2023-09-19T14:31:43;8.93;;;2.55;;
15096;SDS011;7649;52.084;7.478;2023-09-19T14:34:12;4.93;;;2.03;;
15096;SDS011;7649;52.084;7.478;2023-09-19T14:36:41;9.93;;;2.33;;
15096;SDS011;7649;52.084;7.478;2023-09-19T14:39:09;5.90;;;2.40;;
15096;SDS011;7649;52.084;7.478;2023-09-19T14:41:38;4.45;;;2.15;;
15096;SDS011;7649;52.084;7.478;2023-09-19T14:44:06;4.43;;;2.15;;
15096;SDS011;7649;52.084;7.478;2023-09-19T14:46:36;7.32;;;2.20;;
15096;SDS011;7649;52.084;7.478;2023-09-19T14:49:06;7.88;;;2.17;;
15096;SDS011;7649;52.084;7.478;2023-09-19T14:51:37;6.10;;;1.92;;
15096;SDS011;7649;52.084;7.478;2023-09-19T14:54:07;8.80;;;2.08;;
15096;SDS011;7649;52.084;7.478;2023-09-19T14:56:35;8.07;;;2.28;;
15096;SDS011;7649;52.084;7.478;2023-09-19T14:59:04;7.07;;;2.30;;
15096;SDS011;7649;52.084;7.478;2023-09-19T15:01:33;6.68;;;2.10;;
15096;SDS011;7649;52.084;7.478;2023-09-19T15:04:03;7.97;;;2.03;;
15096;SDS011;7649;52.084;7.478;2023-09-19T15:06:32;5.93;;;1.48;;
15096;SDS011;7649;52.084;7.478;2023-09-19T15:09:01;4.50;;;1.70;;
15096;SDS011;7649;52.084;7.478;2023-09-19T15:11:31;3.22;;;1.60;;
15096;SDS011;7649;52.084;7.478;2023-09-19T15:14:00;6.90;;;1.88;;
15096;SDS011;7649;52.084;7.478;2023-09-19T15:16:30;5.72;;;1.60;;
15096;SDS011;7649;52.084;7.478;2023-09-19T15:19:03;4.70;;;1.67;;
15096;SDS011;7649;52.084;7.478;2023-09-19T15:21:33;4.72;;;1.52;;
15096;SDS011;7649;52.084;7.478;2023-09-19T15:24:04;5.50;;;1.80;;
15096;SDS011;7649;52.084;7.478;2023-09-19T15:26:35;2.92;;;1.42;;
15096;SDS011;7649;52.084;7.478;2023-09-19T15:29:05;5.68;;;1.67;;
15096;SDS011;7649;52.084;7.478;2023-09-19T15:31:34;4.53;;;1.52;;
15096;SDS011;7649;52.084;7.478;2023-09-19T15:34:05;4.03;;;1.83;;
15096;SDS011;7649;52.084;7.478;2023-09-19T15:36:33;4.68;;;2.00;;
15096;SDS011;7649;52.084;7.478;2023-09-19T15:39:05;3.30;;;1.50;;
15096;SDS011;7649;52.084;7.478;2023-09-19T15:41:37;5.30;;;1.60;;